sensor_id;sensor_type;location;lat;lon;timestamp;P1;durP1;ratioP1;P2;durP2;ratioP2
15240;SDS011;7723;52.170;9.978;2023-09-19T00:00:16;1.40;;;0.60;;
15240;SDS011;7723;52.170;9.978;2023-09-19T00:02:45;1.25;;;0.70;;
15240;SDS011;7723;52.170;9.978;2023-09-19T00:05:13;1.50;;;0.80;;
15240;SDS011;7723;52.170;9.978;2023-09-19T00:07:40;0.98;;;0.70;;
15240;SDS011;7723;52.170;9.978;2023-09-19T00:10:07;1.65;;;0.75;;
15240;SDS011;7723;52.170;9.978;2023-09-19T00:12:36;1.20;;;0.90;;
15240;SDS011;7723;52.170;9.978;2023-09-19T00:15:05;1.58;;;1.33;;
15240;SDS011;7723;52.170;9.978;2023-09-19T00:17:33;1.55;;;1.10;;
15240;SDS011;7723;52.170;9.978;2023-09-19T00:20:00;1.55;;;0.90;;
15240;SDS011;7723;52.170;9.978;2023-09-19T00:22:39;3.92;;;0.93;;
15240;SDS011;7723;52.170;9.978;2023-09-19T00:25:08;1.25;;;1.10;;
15240;SDS011;7723;52.170;9.978;2023-09-19T00:27:37;1.33;;;1.10;;
15240;SDS011;7723;52.170;9.978;2023-09-19T00:30:08;3.05;;;1.20;;
15240;SDS011;7723;52.170;9.978;2023-09-19T00:32:41;2.13;;;1.52;;
15240;SDS011;7723;52.170;9.978;2023-09-19T00:35:12;1.58;;;1.30;;
15240;SDS011;7723;52.170;9.978;2023-09-19T00:37:40;5.03;;;1.50;;
15240;SDS011;7723;52.170;9.978;2023-09-19T00:40:08;3.53;;;1.35;;
15240;SDS011;7723;52.170;9.978;2023-09-19T00:42:37;3.50;;;1.33;;
15240;SDS011;7723;52.170;9.978;2023-09-19T00:45:08;3.17;;;1.77;;
15240;SDS011;7723;52.170;9.978;2023-09-19T00:47:36;1.88;;;1.42;;
15240;SDS011;7723;52.170;9.978;2023-09-19T00:50:05;2.63;;;1.50;;
15240;SDS011;7723;52.170;9.978;2023-09-19T00:52:33;2.15;;;1.70;;
15240;SDS011;7723;52.170;9.978;2023-09-19T00:55:03;2.70;;;1.73;;
15240;SDS011;7723;52.170;9.978;2023-09-19T00:57:32;2.75;;;1.92;;
15240;SDS011;7723;52.170;9.978;2023-09-19T01:00:00;3.65;;;2.03;;
15240;SDS011;7723;52.170;9.978;2023-09-19T01:02:33;3.80;;;1.95;;
15240;SDS011;7723;52.170;9.978;2023-09-19T01:05:01;3.63;;;1.95;;
15240;SDS011;7723;52.170;9.978;2023-09-19T01:07:29;5.00;;;2.10;;
15240;SDS011;7723;52.170;9.978;2023-09-19T01:09:59;2.22;;;2.03;;
15240;SDS011;7723;52.170;9.978;2023-09-19T01:12:29;4.40;;;2.83;;
15240;SDS011;7723;52.170;9.978;2023-09-19T01:15:03;2.60;;;2.05;;
15240;SDS011;7723;52.170;9.978;2023-09-19T01:17:41;2.78;;;2.03;;
15240;SDS011;7723;52.170;9.978;2023-09-19T01:20:17;2.85;;;1.90;;
15240;SDS011;7723;52.170;9.978;2023-09-19T01:22:54;2.90;;;2.22;;
15240;SDS011;7723;52.170;9.978;2023-09-19T01:28:34;2.92;;;1.90;;
15240;SDS011;7723;52.170;9.978;2023-09-19T01:31:11;2.30;;;1.83;;
15240;SDS011;7723;52.170;9.978;2023-09-19T01:33:54;3.50;;;2.13;;
15240;SDS011;7723;52.170;9.978;2023-09-19T01:36:24;2.75;;;2.40;;
15240;SDS011;7723;52.170;9.978;2023-09-19T01:38:55;3.65;;;2.42;;
15240;SDS011;7723;52.170;9.978;2023-09-19T01:41:26;4.07;;;2.10;;
15240;SDS011;7723;52.170;9.978;2023-09-19T01:44:01;3.95;;;2.47;;
15240;SDS011;7723;52.170;9.978;2023-09-19T01:46:35;4.80;;;2.97;;
15240;SDS011;7723;52.170;9.978;2023-09-19T01:49:09;5.70;;;3.17;;
15240;SDS011;7723;52.170;9.978;2023-09-19T01:51:46;3.75;;;2.90;;
15240;SDS011;7723;52.170;9.978;2023-09-19T01:54:25;3.97;;;2.60;;
15240;SDS011;7723;52.170;9.978;2023-09-19T01:56:57;4.75;;;2.30;;
15240;SDS011;7723;52.170;9.978;2023-09-19T01:59:31;4.03;;;2.85;;
15240;SDS011;7723;52.170;9.978;2023-09-19T02:02:04;7.35;;;2.65;;
15240;SDS011;7723;52.170;9.978;2023-09-19T02:04:33;3.63;;;2.45;;
15240;SDS011;7723;52.170;9.978;2023-09-19T02:07:01;3.55;;;2.47;;
15240;SDS011;7723;52.170;9.978;2023-09-19T02:09:30;4.82;;;2.40;;
15240;SDS011;7723;52.170;9.978;2023-09-19T02:12:00;3.63;;;2.38;;
15240;SDS011;7723;52.170;9.978;2023-09-19T02:14:29;10.43;;;2.60;;
15240;SDS011;7723;52.170;9.978;2023-09-19T02:16:57;8.07;;;2.50;;
15240;SDS011;7723;52.170;9.978;2023-09-19T02:19:26;3.72;;;2.47;;
15240;SDS011;7723;52.170;9.978;2023-09-19T02:21:55;3.45;;;2.20;;
15240;SDS011;7723;52.170;9.978;2023-09-19T02:24:22;3.28;;;2.28;;
15240;SDS011;7723;52.170;9.978;2023-09-19T02:26:52;4.88;;;2.58;;
15240;SDS011;7723;52.170;9.978;2023-09-19T02:29:19;8.15;;;3.00;;
15240;SDS011;7723;52.170;9.978;2023-09-19T02:31:47;4.05;;;2.42;;
15240;SDS011;7723;52.170;9.978;2023-09-19T02:34:14;3.97;;;2.50;;
15240;SDS011;7723;52.170;9.978;2023-09-19T02:36:44;3.03;;;2.63;;
15240;SDS011;7723;52.170;9.978;2023-09-19T02:39:11;4.90;;;2.72;;
15240;SDS011;7723;52.170;9.978;2023-09-19T02:41:38;3.97;;;2.47;;
15240;SDS011;7723;52.170;9.978;2023-09-19T02:44:06;3.42;;;2.65;;
15240;SDS011;7723;52.170;9.978;2023-09-19T02:46:34;3.15;;;2.28;;
15240;SDS011;7723;52.170;9.978;2023-09-19T02:49:02;4.32;;;3.22;;
15240;SDS011;7723;52.170;9.978;2023-09-19T02:51:31;5.05;;;2.88;;
15240;SDS011;7723;52.170;9.978;2023-09-19T02:54:00;3.67;;;2.75;;
15240;SDS011;7723;52.170;9.978;2023-09-19T02:56:29;4.55;;;2.40;;
15240;SDS011;7723;52.170;9.978;2023-09-19T02:58:57;3.28;;;2.30;;
15240;SDS011;7723;52.170;9.978;2023-09-19T03:01:25;4.10;;;2.33;;
15240;SDS011;7723;52.170;9.978;2023-09-19T03:03:53;4.97;;;2.33;;
15240;SDS011;7723;52.170;9.978;2023-09-19T03:06:20;3.10;;;2.10;;
15240;SDS011;7723;52.170;9.978;2023-09-19T03:08:49;5.15;;;1.92;;
15240;SDS011;7723;52.170;9.978;2023-09-19T03:11:18;3.75;;;2.25;;
15240;SDS011;7723;52.170;9.978;2023-09-19T03:13:50;10.38;;;2.90;;
15240;SDS011;7723;52.170;9.978;2023-09-19T03:16:18;3.85;;;2.28;;
15240;SDS011;7723;52.170;9.978;2023-09-19T03:18:47;4.03;;;2.55;;
15240;SDS011;7723;52.170;9.978;2023-09-19T03:21:14;5.18;;;2.75;;
15240;SDS011;7723;52.170;9.978;2023-09-19T03:23:42;5.30;;;2.58;;
15240;SDS011;7723;52.170;9.978;2023-09-19T03:26:11;4.80;;;2.45;;
15240;SDS011;7723;52.170;9.978;2023-09-19T03:28:42;5.00;;;2.50;;
15240;SDS011;7723;52.170;9.978;2023-09-19T03:31:11;3.38;;;2.40;;
15240;SDS011;7723;52.170;9.978;2023-09-19T03:33:38;3.53;;;3.00;;
15240;SDS011;7723;52.170;9.978;2023-09-19T03:36:05;8.23;;;3.28;;
15240;SDS011;7723;52.170;9.978;2023-09-19T03:38:33;5.57;;;3.47;;
15240;SDS011;7723;52.170;9.978;2023-09-19T03:41:00;8.98;;;4.80;;
15240;SDS011;7723;52.170;9.978;2023-09-19T03:43:27;8.45;;;5.00;;
15240;SDS011;7723;52.170;9.978;2023-09-19T03:45:56;7.65;;;4.68;;
15240;SDS011;7723;52.170;9.978;2023-09-19T03:48:27;8.57;;;4.90;;
15240;SDS011;7723;52.170;9.978;2023-09-19T03:50:55;6.28;;;4.20;;
15240;SDS011;7723;52.170;9.978;2023-09-19T03:53:22;6.93;;;3.72;;
15240;SDS011;7723;52.170;9.978;2023-09-19T03:55:50;7.70;;;4.30;;
15240;SDS011;7723;52.170;9.978;2023-09-19T03:58:17;8.48;;;4.28;;
15240;SDS011;7723;52.170;9.978;2023-09-19T04:00:44;5.90;;;3.75;;
15240;SDS011;7723;52.170;9.978;2023-09-19T04:03:12;7.65;;;4.35;;
15240;SDS011;7723;52.170;9.978;2023-09-19T04:05:44;8.35;;;3.97;;
15240;SDS011;7723;52.170;9.978;2023-09-19T04:08:12;7.05;;;3.63;;
15240;SDS011;7723;52.170;9.978;2023-09-19T04:10:41;6.03;;;4.22;;
15240;SDS011;7723;52.170;9.978;2023-09-19T04:13:10;5.70;;;4.28;;
15240;SDS011;7723;52.170;9.978;2023-09-19T04:15:37;7.50;;;4.25;;
15240;SDS011;7723;52.170;9.978;2023-09-19T04:18:05;4.75;;;3.72;;
15240;SDS011;7723;52.170;9.978;2023-09-19T04:20:34;7.75;;;4.38;;
15240;SDS011;7723;52.170;9.978;2023-09-19T04:23:01;6.95;;;4.18;;
15240;SDS011;7723;52.170;9.978;2023-09-19T04:25:29;4.95;;;3.75;;
15240;SDS011;7723;52.170;9.978;2023-09-19T04:27:56;6.60;;;4.10;;
15240;SDS011;7723;52.170;9.978;2023-09-19T04:30:24;4.72;;;3.55;;
15240;SDS011;7723;52.170;9.978;2023-09-19T04:32:52;7.80;;;4.28;;
15240;SDS011;7723;52.170;9.978;2023-09-19T04:35:19;5.07;;;3.67;;
15240;SDS011;7723;52.170;9.978;2023-09-19T04:37:48;6.95;;;3.83;;
15240;SDS011;7723;52.170;9.978;2023-09-19T04:40:16;6.40;;;3.90;;
15240;SDS011;7723;52.170;9.978;2023-09-19T04:42:44;9.88;;;3.92;;
15240;SDS011;7723;52.170;9.978;2023-09-19T04:45:11;5.40;;;3.72;;
15240;SDS011;7723;52.170;9.978;2023-09-19T04:47:39;5.65;;;3.65;;
15240;SDS011;7723;52.170;9.978;2023-09-19T04:50:07;5.28;;;3.35;;
15240;SDS011;7723;52.170;9.978;2023-09-19T04:52:39;5.20;;;2.95;;
15240;SDS011;7723;52.170;9.978;2023-09-19T04:55:11;5.30;;;3.33;;
15240;SDS011;7723;52.170;9.978;2023-09-19T04:57:41;5.30;;;3.50;;
15240;SDS011;7723;52.170;9.978;2023-09-19T05:00:12;5.50;;;3.20;;
15240;SDS011;7723;52.170;9.978;2023-09-19T05:02:42;6.75;;;3.60;;
15240;SDS011;7723;52.170;9.978;2023-09-19T05:05:09;5.55;;;3.28;;
15240;SDS011;7723;52.170;9.978;2023-09-19T05:07:38;5.32;;;3.10;;
15240;SDS011;7723;52.170;9.978;2023-09-19T05:10:07;4.90;;;2.95;;
15240;SDS011;7723;52.170;9.978;2023-09-19T05:12:38;6.10;;;3.63;;
15240;SDS011;7723;52.170;9.978;2023-09-19T05:15:06;6.85;;;3.83;;
15240;SDS011;7723;52.170;9.978;2023-09-19T05:17:34;7.65;;;3.08;;
15240;SDS011;7723;52.170;9.978;2023-09-19T05:20:01;6.95;;;3.17;;
15240;SDS011;7723;52.170;9.978;2023-09-19T05:22:40;4.90;;;3.70;;
15240;SDS011;7723;52.170;9.978;2023-09-19T05:25:08;6.78;;;3.00;;
15240;SDS011;7723;52.170;9.978;2023-09-19T05:27:35;7.53;;;3.58;;
15240;SDS011;7723;52.170;9.978;2023-09-19T05:30:05;4.80;;;2.97;;
15240;SDS011;7723;52.170;9.978;2023-09-19T05:32:33;5.72;;;3.28;;
15240;SDS011;7723;52.170;9.978;2023-09-19T05:35:00;4.97;;;3.47;;
15240;SDS011;7723;52.170;9.978;2023-09-19T05:37:28;6.07;;;3.35;;
15240;SDS011;7723;52.170;9.978;2023-09-19T05:39:55;6.22;;;4.10;;
15240;SDS011;7723;52.170;9.978;2023-09-19T05:42:23;11.85;;;3.60;;
15240;SDS011;7723;52.170;9.978;2023-09-19T05:44:52;6.65;;;4.00;;
15240;SDS011;7723;52.170;9.978;2023-09-19T05:47:20;5.78;;;3.17;;
15240;SDS011;7723;52.170;9.978;2023-09-19T05:49:47;5.40;;;3.22;;
15240;SDS011;7723;52.170;9.978;2023-09-19T05:52:14;6.30;;;3.63;;
15240;SDS011;7723;52.170;9.978;2023-09-19T05:54:42;7.72;;;3.40;;
15240;SDS011;7723;52.170;9.978;2023-09-19T05:57:09;9.38;;;4.00;;
15240;SDS011;7723;52.170;9.978;2023-09-19T05:59:37;5.18;;;3.08;;
15240;SDS011;7723;52.170;9.978;2023-09-19T06:02:06;4.90;;;2.78;;
15240;SDS011;7723;52.170;9.978;2023-09-19T06:04:34;7.93;;;3.47;;
15240;SDS011;7723;52.170;9.978;2023-09-19T06:07:04;7.10;;;3.08;;
15240;SDS011;7723;52.170;9.978;2023-09-19T06:09:31;4.85;;;2.67;;
15240;SDS011;7723;52.170;9.978;2023-09-19T06:11:58;10.50;;;2.80;;
15240;SDS011;7723;52.170;9.978;2023-09-19T06:14:28;6.68;;;3.00;;
15240;SDS011;7723;52.170;9.978;2023-09-19T06:16:55;5.43;;;2.97;;
15240;SDS011;7723;52.170;9.978;2023-09-19T06:19:24;7.20;;;2.92;;
15240;SDS011;7723;52.170;9.978;2023-09-19T06:21:52;6.80;;;2.75;;
15240;SDS011;7723;52.170;9.978;2023-09-19T06:24:19;4.90;;;2.67;;
15240;SDS011;7723;52.170;9.978;2023-09-19T06:26:46;12.63;;;3.08;;
15240;SDS011;7723;52.170;9.978;2023-09-19T06:29:14;5.13;;;2.78;;
15240;SDS011;7723;52.170;9.978;2023-09-19T06:31:41;4.28;;;2.60;;
15240;SDS011;7723;52.170;9.978;2023-09-19T06:34:12;3.95;;;2.65;;
15240;SDS011;7723;52.170;9.978;2023-09-19T06:36:41;6.53;;;3.25;;
15240;SDS011;7723;52.170;9.978;2023-09-19T06:39:10;4.68;;;2.72;;
15240;SDS011;7723;52.170;9.978;2023-09-19T06:41:37;5.93;;;2.92;;
15240;SDS011;7723;52.170;9.978;2023-09-19T06:44:04;7.38;;;2.72;;
15240;SDS011;7723;52.170;9.978;2023-09-19T06:46:32;5.05;;;2.30;;
15240;SDS011;7723;52.170;9.978;2023-09-19T06:49:00;6.13;;;2.93;;
15240;SDS011;7723;52.170;9.978;2023-09-19T06:51:31;5.18;;;2.75;;
15240;SDS011;7723;52.170;9.978;2023-09-19T06:54:01;8.70;;;2.70;;
15240;SDS011;7723;52.170;9.978;2023-09-19T06:56:30;6.88;;;2.60;;
15240;SDS011;7723;52.170;9.978;2023-09-19T06:58:58;5.63;;;2.20;;
15240;SDS011;7723;52.170;9.978;2023-09-19T07:01:25;4.43;;;1.90;;
15240;SDS011;7723;52.170;9.978;2023-09-19T07:03:53;5.88;;;2.80;;
15240;SDS011;7723;52.170;9.978;2023-09-19T07:06:20;5.30;;;2.10;;
15240;SDS011;7723;52.170;9.978;2023-09-19T07:08:47;2.67;;;1.67;;
15240;SDS011;7723;52.170;9.978;2023-09-19T07:11:17;3.15;;;1.67;;
15240;SDS011;7723;52.170;9.978;2023-09-19T07:13:44;4.80;;;2.13;;
15240;SDS011;7723;52.170;9.978;2023-09-19T07:16:12;6.20;;;1.83;;
15240;SDS011;7723;52.170;9.978;2023-09-19T07:18:52;3.63;;;1.58;;
15240;SDS011;7723;52.170;9.978;2023-09-19T07:21:20;4.15;;;1.70;;
15240;SDS011;7723;52.170;9.978;2023-09-19T07:23:47;3.83;;;2.17;;
15240;SDS011;7723;52.170;9.978;2023-09-19T07:26:14;7.78;;;1.85;;
15240;SDS011;7723;52.170;9.978;2023-09-19T07:28:43;4.55;;;1.92;;
15240;SDS011;7723;52.170;9.978;2023-09-19T07:31:10;4.63;;;1.48;;
15240;SDS011;7723;52.170;9.978;2023-09-19T07:33:39;5.05;;;1.90;;
15240;SDS011;7723;52.170;9.978;2023-09-19T07:36:09;3.90;;;1.63;;
15240;SDS011;7723;52.170;9.978;2023-09-19T07:38:39;6.15;;;1.85;;
15240;SDS011;7723;52.170;9.978;2023-09-19T07:41:06;4.50;;;1.95;;
15240;SDS011;7723;52.170;9.978;2023-09-19T07:43:35;4.25;;;1.77;;
15240;SDS011;7723;52.170;9.978;2023-09-19T07:46:04;5.95;;;1.60;;
15240;SDS011;7723;52.170;9.978;2023-09-19T07:48:34;3.88;;;1.33;;
15240;SDS011;7723;52.170;9.978;2023-09-19T07:51:03;7.05;;;1.52;;
15240;SDS011;7723;52.170;9.978;2023-09-19T07:53:31;4.03;;;1.67;;
15240;SDS011;7723;52.170;9.978;2023-09-19T07:56:03;6.70;;;1.75;;
15240;SDS011;7723;52.170;9.978;2023-09-19T07:58:31;4.35;;;1.48;;
15240;SDS011;7723;52.170;9.978;2023-09-19T08:01:04;2.03;;;1.45;;
15240;SDS011;7723;52.170;9.978;2023-09-19T08:03:31;5.82;;;1.85;;
15240;SDS011;7723;52.170;9.978;2023-09-19T08:05:59;6.82;;;1.40;;
15240;SDS011;7723;52.170;9.978;2023-09-19T08:08:26;8.20;;;1.52;;
15240;SDS011;7723;52.170;9.978;2023-09-19T08:10:54;6.35;;;1.67;;
15240;SDS011;7723;52.170;9.978;2023-09-19T08:13:22;6.47;;;1.38;;
15240;SDS011;7723;52.170;9.978;2023-09-19T08:15:50;3.20;;;1.50;;
15240;SDS011;7723;52.170;9.978;2023-09-19T08:18:19;3.53;;;1.73;;
15240;SDS011;7723;52.170;9.978;2023-09-19T08:20:50;7.95;;;1.42;;
15240;SDS011;7723;52.170;9.978;2023-09-19T08:23:18;4.13;;;1.48;;
15240;SDS011;7723;52.170;9.978;2023-09-19T08:25:46;2.10;;;1.17;;
15240;SDS011;7723;52.170;9.978;2023-09-19T08:28:13;4.70;;;1.55;;
15240;SDS011;7723;52.170;9.978;2023-09-19T08:30:44;6.65;;;1.50;;
15240;SDS011;7723;52.170;9.978;2023-09-19T08:33:11;7.53;;;1.77;;
15240;SDS011;7723;52.170;9.978;2023-09-19T08:35:41;4.50;;;1.40;;
15240;SDS011;7723;52.170;9.978;2023-09-19T08:38:10;3.50;;;1.60;;
15240;SDS011;7723;52.170;9.978;2023-09-19T08:40:39;2.53;;;1.23;;
15240;SDS011;7723;52.170;9.978;2023-09-19T08:43:07;5.53;;;1.70;;
15240;SDS011;7723;52.170;9.978;2023-09-19T08:45:35;2.60;;;1.33;;
15240;SDS011;7723;52.170;9.978;2023-09-19T08:48:10;2.38;;;1.20;;
15240;SDS011;7723;52.170;9.978;2023-09-19T08:50:48;4.57;;;1.35;;
15240;SDS011;7723;52.170;9.978;2023-09-19T08:53:20;3.92;;;1.50;;
15240;SDS011;7723;52.170;9.978;2023-09-19T08:55:53;5.15;;;1.30;;
15240;SDS011;7723;52.170;9.978;2023-09-19T08:58:21;6.90;;;1.65;;
15240;SDS011;7723;52.170;9.978;2023-09-19T09:00:54;3.95;;;1.50;;
15240;SDS011;7723;52.170;9.978;2023-09-19T09:03:26;2.95;;;1.50;;
15240;SDS011;7723;52.170;9.978;2023-09-19T09:06:00;4.07;;;1.40;;
15240;SDS011;7723;52.170;9.978;2023-09-19T09:08:28;5.30;;;1.73;;
15240;SDS011;7723;52.170;9.978;2023-09-19T09:10:58;3.47;;;1.73;;
15240;SDS011;7723;52.170;9.978;2023-09-19T09:13:26;5.30;;;1.83;;
15240;SDS011;7723;52.170;9.978;2023-09-19T09:15:53;7.07;;;1.48;;
15240;SDS011;7723;52.170;9.978;2023-09-19T09:18:20;5.43;;;1.58;;
15240;SDS011;7723;52.170;9.978;2023-09-19T09:20:49;7.13;;;2.08;;
15240;SDS011;7723;52.170;9.978;2023-09-19T09:23:18;5.35;;;1.88;;
15240;SDS011;7723;52.170;9.978;2023-09-19T09:25:46;6.47;;;1.60;;
15240;SDS011;7723;52.170;9.978;2023-09-19T09:28:18;5.35;;;1.13;;
15240;SDS011;7723;52.170;9.978;2023-09-19T09:30:47;4.43;;;1.60;;
15240;SDS011;7723;52.170;9.978;2023-09-19T09:33:14;5.70;;;1.55;;
15240;SDS011;7723;52.170;9.978;2023-09-19T09:35:48;5.20;;;1.48;;
15240;SDS011;7723;52.170;9.978;2023-09-19T09:38:18;4.75;;;1.48;;
15240;SDS011;7723;52.170;9.978;2023-09-19T09:40:51;6.05;;;1.45;;
15240;SDS011;7723;52.170;9.978;2023-09-19T09:43:31;6.35;;;1.33;;
15240;SDS011;7723;52.170;9.978;2023-09-19T09:46:08;3.10;;;1.35;;
15240;SDS011;7723;52.170;9.978;2023-09-19T09:48:55;6.05;;;1.50;;
15240;SDS011;7723;52.170;9.978;2023-09-19T09:51:50;7.47;;;1.40;;
15240;SDS011;7723;52.170;9.978;2023-09-19T09:54:27;4.45;;;1.25;;
15240;SDS011;7723;52.170;9.978;2023-09-19T09:57:01;4.68;;;1.80;;
15240;SDS011;7723;52.170;9.978;2023-09-19T09:59:49;3.00;;;1.35;;
15240;SDS011;7723;52.170;9.978;2023-09-19T10:02:18;5.10;;;1.45;;
15240;SDS011;7723;52.170;9.978;2023-09-19T10:04:50;3.50;;;1.52;;
15240;SDS011;7723;52.170;9.978;2023-09-19T10:07:27;3.95;;;1.42;;
15240;SDS011;7723;52.170;9.978;2023-09-19T10:10:00;4.15;;;1.77;;
15240;SDS011;7723;52.170;9.978;2023-09-19T10:12:38;4.07;;;1.50;;
15240;SDS011;7723;52.170;9.978;2023-09-19T10:15:11;8.13;;;2.05;;
15240;SDS011;7723;52.170;9.978;2023-09-19T10:17:42;5.72;;;1.58;;
15240;SDS011;7723;52.170;9.978;2023-09-19T10:20:12;4.15;;;1.45;;
15240;SDS011;7723;52.170;9.978;2023-09-19T10:22:59;4.07;;;1.80;;
15240;SDS011;7723;52.170;9.978;2023-09-19T10:25:28;6.03;;;1.73;;
15240;SDS011;7723;52.170;9.978;2023-09-19T10:27:57;3.70;;;1.75;;
15240;SDS011;7723;52.170;9.978;2023-09-19T10:30:28;3.50;;;1.73;;
15240;SDS011;7723;52.170;9.978;2023-09-19T10:33:00;4.32;;;1.88;;
15240;SDS011;7723;52.170;9.978;2023-09-19T10:35:28;4.45;;;1.65;;
15240;SDS011;7723;52.170;9.978;2023-09-19T10:37:57;5.07;;;2.35;;
15240;SDS011;7723;52.170;9.978;2023-09-19T10:40:29;5.88;;;1.77;;
15240;SDS011;7723;52.170;9.978;2023-09-19T10:43:01;4.65;;;1.75;;
15240;SDS011;7723;52.170;9.978;2023-09-19T10:45:30;7.57;;;1.70;;
15240;SDS011;7723;52.170;9.978;2023-09-19T10:47:58;3.33;;;1.75;;
15240;SDS011;7723;52.170;9.978;2023-09-19T10:50:28;3.25;;;1.83;;
15240;SDS011;7723;52.170;9.978;2023-09-19T10:52:59;4.13;;;2.25;;
15240;SDS011;7723;52.170;9.978;2023-09-19T10:55:34;4.57;;;1.83;;
15240;SDS011;7723;52.170;9.978;2023-09-19T10:58:02;7.25;;;2.00;;
15240;SDS011;7723;52.170;9.978;2023-09-19T11:00:52;4.57;;;2.03;;
15240;SDS011;7723;52.170;9.978;2023-09-19T11:03:21;5.30;;;1.85;;
15240;SDS011;7723;52.170;9.978;2023-09-19T11:06:03;5.15;;;1.67;;
15240;SDS011;7723;52.170;9.978;2023-09-19T11:08:51;3.45;;;1.65;;
15240;SDS011;7723;52.170;9.978;2023-09-19T11:11:43;3.45;;;1.70;;
15240;SDS011;7723;52.170;9.978;2023-09-19T11:14:30;4.00;;;1.80;;
15240;SDS011;7723;52.170;9.978;2023-09-19T11:23:21;4.78;;;2.00;;
15240;SDS011;7723;52.170;9.978;2023-09-19T11:25:52;4.55;;;2.05;;
15240;SDS011;7723;52.170;9.978;2023-09-19T11:28:31;3.63;;;1.88;;
15240;SDS011;7723;52.170;9.978;2023-09-19T11:40:06;6.88;;;2.55;;
15240;SDS011;7723;52.170;9.978;2023-09-19T11:42:42;6.22;;;1.80;;
15240;SDS011;7723;52.170;9.978;2023-09-19T11:48:32;3.10;;;1.50;;
15240;SDS011;7723;52.170;9.978;2023-09-19T11:51:12;5.18;;;2.00;;
15240;SDS011;7723;52.170;9.978;2023-09-19T11:53:49;3.55;;;1.83;;
15240;SDS011;7723;52.170;9.978;2023-09-19T11:56:17;4.38;;;1.77;;
15240;SDS011;7723;52.170;9.978;2023-09-19T11:58:45;4.88;;;2.03;;
15240;SDS011;7723;52.170;9.978;2023-09-19T12:01:20;4.25;;;1.67;;
15240;SDS011;7723;52.170;9.978;2023-09-19T12:03:52;3.80;;;1.70;;
15240;SDS011;7723;52.170;9.978;2023-09-19T12:06:22;4.57;;;1.85;;
15240;SDS011;7723;52.170;9.978;2023-09-19T12:08:49;5.97;;;2.00;;
15240;SDS011;7723;52.170;9.978;2023-09-19T12:11:19;5.70;;;1.50;;
15240;SDS011;7723;52.170;9.978;2023-09-19T12:13:49;4.50;;;1.80;;
15240;SDS011;7723;52.170;9.978;2023-09-19T12:16:20;4.57;;;1.70;;
15240;SDS011;7723;52.170;9.978;2023-09-19T12:18:48;5.25;;;1.67;;
15240;SDS011;7723;52.170;9.978;2023-09-19T12:21:23;4.28;;;1.60;;
15240;SDS011;7723;52.170;9.978;2023-09-19T12:23:58;4.35;;;1.73;;
15240;SDS011;7723;52.170;9.978;2023-09-19T12:26:37;8.63;;;1.98;;
15240;SDS011;7723;52.170;9.978;2023-09-19T12:29:10;4.25;;;1.90;;
15240;SDS011;7723;52.170;9.978;2023-09-19T12:31:48;5.22;;;1.50;;
15240;SDS011;7723;52.170;9.978;2023-09-19T12:34:19;4.00;;;1.65;;
15240;SDS011;7723;52.170;9.978;2023-09-19T12:36:47;3.40;;;1.88;;
15240;SDS011;7723;52.170;9.978;2023-09-19T12:39:24;3.80;;;1.80;;
15240;SDS011;7723;52.170;9.978;2023-09-19T12:41:52;3.33;;;1.83;;
15240;SDS011;7723;52.170;9.978;2023-09-19T12:44:19;4.07;;;2.63;;
15240;SDS011;7723;52.170;9.978;2023-09-19T12:46:51;4.78;;;1.92;;
15240;SDS011;7723;52.170;9.978;2023-09-19T12:49:19;3.63;;;1.73;;
15240;SDS011;7723;52.170;9.978;2023-09-19T12:51:48;3.55;;;1.17;;
15240;SDS011;7723;52.170;9.978;2023-09-19T12:54:17;3.88;;;2.00;;
15240;SDS011;7723;52.170;9.978;2023-09-19T12:56:45;4.28;;;1.85;;
15240;SDS011;7723;52.170;9.978;2023-09-19T12:59:14;4.05;;;1.70;;
15240;SDS011;7723;52.170;9.978;2023-09-19T13:01:42;4.38;;;2.00;;
15240;SDS011;7723;52.170;9.978;2023-09-19T13:04:14;5.07;;;2.05;;
15240;SDS011;7723;52.170;9.978;2023-09-19T13:06:44;3.63;;;1.90;;
15240;SDS011;7723;52.170;9.978;2023-09-19T13:09:14;4.68;;;1.83;;
15240;SDS011;7723;52.170;9.978;2023-09-19T13:11:42;3.95;;;1.80;;
15240;SDS011;7723;52.170;9.978;2023-09-19T13:14:15;4.78;;;2.03;;
15240;SDS011;7723;52.170;9.978;2023-09-19T13:16:57;4.43;;;1.83;;
15240;SDS011;7723;52.170;9.978;2023-09-19T13:19:36;4.90;;;1.92;;
15240;SDS011;7723;52.170;9.978;2023-09-19T13:22:05;4.00;;;1.85;;
15240;SDS011;7723;52.170;9.978;2023-09-19T13:24:33;3.78;;;1.63;;
15240;SDS011;7723;52.170;9.978;2023-09-19T13:27:05;4.53;;;1.73;;
15240;SDS011;7723;52.170;9.978;2023-09-19T13:29:33;2.90;;;1.60;;
15240;SDS011;7723;52.170;9.978;2023-09-19T13:32:00;3.08;;;1.70;;
15240;SDS011;7723;52.170;9.978;2023-09-19T13:34:29;6.85;;;1.77;;
15240;SDS011;7723;52.170;9.978;2023-09-19T13:36:58;3.88;;;1.90;;
15240;SDS011;7723;52.170;9.978;2023-09-19T13:39:25;7.97;;;1.88;;
15240;SDS011;7723;52.170;9.978;2023-09-19T13:41:52;6.13;;;2.00;;
15240;SDS011;7723;52.170;9.978;2023-09-19T13:44:20;4.68;;;2.05;;
15240;SDS011;7723;52.170;9.978;2023-09-19T13:46:47;4.97;;;2.00;;
15240;SDS011;7723;52.170;9.978;2023-09-19T13:49:14;3.88;;;1.90;;
15240;SDS011;7723;52.170;9.978;2023-09-19T13:51:43;5.95;;;2.63;;
15240;SDS011;7723;52.170;9.978;2023-09-19T13:54:11;4.05;;;1.63;;
15240;SDS011;7723;52.170;9.978;2023-09-19T13:56:39;5.22;;;1.70;;
15240;SDS011;7723;52.170;9.978;2023-09-19T13:59:06;4.03;;;2.55;;
15240;SDS011;7723;52.170;9.978;2023-09-19T14:01:33;4.07;;;1.90;;
15240;SDS011;7723;52.170;9.978;2023-09-19T14:04:00;3.67;;;1.92;;
15240;SDS011;7723;52.170;9.978;2023-09-19T14:06:27;4.47;;;2.03;;
15240;SDS011;7723;52.170;9.978;2023-09-19T14:08:55;4.68;;;1.95;;
15240;SDS011;7723;52.170;9.978;2023-09-19T14:11:23;3.33;;;1.70;;
15240;SDS011;7723;52.170;9.978;2023-09-19T14:13:52;5.70;;;2.17;;
15240;SDS011;7723;52.170;9.978;2023-09-19T14:16:19;3.72;;;2.33;;
15240;SDS011;7723;52.170;9.978;2023-09-19T14:18:47;3.40;;;1.50;;
15240;SDS011;7723;52.170;9.978;2023-09-19T14:21:14;6.70;;;2.28;;
15240;SDS011;7723;52.170;9.978;2023-09-19T14:23:42;4.95;;;2.13;;
15240;SDS011;7723;52.170;9.978;2023-09-19T14:26:10;3.70;;;1.83;;
15240;SDS011;7723;52.170;9.978;2023-09-19T14:28:38;4.88;;;1.90;;
15240;SDS011;7723;52.170;9.978;2023-09-19T14:31:06;3.50;;;1.60;;
15240;SDS011;7723;52.170;9.978;2023-09-19T14:33:34;3.38;;;1.77;;
15240;SDS011;7723;52.170;9.978;2023-09-19T14:36:04;4.70;;;2.33;;
15240;SDS011;7723;52.170;9.978;2023-09-19T14:38:34;4.00;;;1.75;;
15240;SDS011;7723;52.170;9.978;2023-09-19T14:41:02;2.42;;;1.70;;
15240;SDS011;7723;52.170;9.978;2023-09-19T14:43:29;9.77;;;2.20;;
15240;SDS011;7723;52.170;9.978;2023-09-19T14:46:01;2.80;;;1.67;;
15240;SDS011;7723;52.170;9.978;2023-09-19T14:48:29;4.50;;;1.40;;
15240;SDS011;7723;52.170;9.978;2023-09-19T14:51:01;2.97;;;1.30;;
15240;SDS011;7723;52.170;9.978;2023-09-19T14:53:29;3.42;;;1.90;;
15240;SDS011;7723;52.170;9.978;2023-09-19T14:55:56;3.53;;;1.70;;
15240;SDS011;7723;52.170;9.978;2023-09-19T14:58:23;4.15;;;2.00;;
15240;SDS011;7723;52.170;9.978;2023-09-19T15:00:51;4.80;;;1.45;;
15240;SDS011;7723;52.170;9.978;2023-09-19T15:03:19;2.25;;;1.40;;
15240;SDS011;7723;52.170;9.978;2023-09-19T15:05:46;4.07;;;1.67;;
15240;SDS011;7723;52.170;9.978;2023-09-19T15:08:13;5.88;;;1.80;;
15240;SDS011;7723;52.170;9.978;2023-09-19T15:10:41;3.42;;;1.42;;
15240;SDS011;7723;52.170;9.978;2023-09-19T15:13:17;3.88;;;1.55;;
15240;SDS011;7723;52.170;9.978;2023-09-19T15:15:45;2.60;;;1.25;;
15240;SDS011;7723;52.170;9.978;2023-09-19T15:18:13;3.20;;;1.40;;
15240;SDS011;7723;52.170;9.978;2023-09-19T15:20:44;4.20;;;1.70;;
15240;SDS011;7723;52.170;9.978;2023-09-19T15:23:12;4.78;;;1.27;;
15240;SDS011;7723;52.170;9.978;2023-09-19T15:25:39;3.70;;;1.40;;
15240;SDS011;7723;52.170;9.978;2023-09-19T15:28:06;3.03;;;1.50;;
15240;SDS011;7723;52.170;9.978;2023-09-19T15:30:36;3.40;;;1.50;;
15240;SDS011;7723;52.170;9.978;2023-09-19T15:33:04;3.63;;;1.45;;
15240;SDS011;7723;52.170;9.978;2023-09-19T15:35:31;3.33;;;1.23;;
15240;SDS011;7723;52.170;9.978;2023-09-19T15:38:00;2.97;;;1.65;;